Bryce Canyon Airport Bryce Canyon US
ICAO: KBCE
IATA: BCE
Category: Medium
Scheduled Services: No

Elevation: 7590 ft
TransAlt. 18000 ft.

Airport Communications:
ASOS:135.475
CEDAR CITY RDO:122.2
CTAF/UNICOM:122.8

KBCE Zoom In..

Runways:

(A) RW 03 length 7395 ft width 75 ft
---- / hdg 33

(B) RW 21 length 7395 ft width 75 ft
---- / hdg 213

Location; KBCE
Day. 23 / Time. 02.53 Zulu
* Altimeter: 30.41
* Temperature: 22° c. 71.6°f.
* Wind from: 010° Speed 08 kn.
Dewpoint: 11° c.
Visibility: 10 Statute Miles.
Clouds: Scattered 7500 ft.

KBCE 230253Z AUTO 01008KT 10SM SCT075 22/11 A3041 RMK AO2 SLP165 T02220111 53004


Wind From 010°
Speed 08 kn.

 
 
jpsmedia.com for Web Design worldairports.se 2018   terms of use